Le Ponant — FGZZ — position and weather

sailwx.info

Track history (hours):
 
Tides and Currents Weather Stations Pressure Air Temp Water Temp Dewpoint Dewpoint Depression Visibility Wind Speed Wind Dir Waves Ship Positions

Le Ponant

Operator: Compangy des Iles du Ponant

Last reported at 2016-Jun-28 04:15 UTC. Time now 2016-Jun-28 05:56 UTC.
Position N 43°04' E 009°19'.

Length 84 m; draft 4.2 m.

Type: Passenger vessel. MMSI: 227186000.

Date/timePositionNaut miles runAvg speedWind from/ knotsBaromVisibWave heightAir tempDewpointWater temp
2016-Jun-28 04:15N 43°04' E 009°19'2010.3
2016-Jun-28 02:18N 43°12' E 008°54'810.7
2016-Jun-28 01:33N 43°15' E 008°44'1110.7
2016-Jun-28 00:33N 43°19' E 008°30'1110.5
2016-Jun-27 23:32N 43°23' E 008°16'1010.7
2016-Jun-27 22:33N 43°27' E 008°03'1111.0
2016-Jun-27 21:33N 43°31' E 007°49'1110.4
2016-Jun-27 20:29N 43°35' E 007°35'1010.0
2016-Jun-27 19:32N 43°38' E 007°23'5 0.5
2016-Jun-27 10:12N 43°42' E 007°17'1 0.1
2016-Jun-27 05:31N 43°41' E 007°17'26 8.7
2016-Jun-27 02:30N 43°34' E 007°52'1111.4
2016-Jun-27 01:30N 43°31' E 008°07'2110.4
2016-Jun-26 23:31N 43°28' E 008°36'1010.6
2016-Jun-26 22:33N 43°26' E 008°49'1211.4
2016-Jun-26 21:31N 43°24' E 009°05'1111.3
2016-Jun-26 20:33N 43°21' E 009°20'1111.3
2016-Jun-26 19:33N 43°19' E 009°35'1111.4
2016-Jun-26 18:34N 43°13' E 009°49'1010.2
2016-Jun-26 17:33N 43°06' E 009°59'1010.4
2016-Jun-26 16:33N 42°58' E 010°08'1010.3
2016-Jun-26 15:33N 42°51' E 010°18'3 2.5
2016-Jun-26 14:32N 42°49' E 010°20'5 0.5
2016-Jun-26 04:31N 42°51' E 010°14'21 7.0
2016-Jun-26 01:33N 42°35' E 009°56'164 4.4
2016-Jun-24 12:18N 40°57' E 012°52'6 7.2
2016-Jun-24 11:28N 40°53' E 012°58'161 4.0
2016-Jun-22 19:21N 38°48' E 015°11'2 0.6
2016-Jun-22 15:29N 38°46' E 015°13'0 0.3
2016-Jun-22 14:16N 38°46' E 015°12'4 5.6
2016-Jun-22 13:34N 38°42' E 015°10'1110.5
2016-Jun-22 12:33N 38°33' E 015°03'7 2.9
2016-Jun-22 10:08N 38°28' E 014°58'0 0.0
2016-Jun-22 09:33N 38°28' E 014°58'0 0.0
2016-Jun-22 08:32N 38°28' E 014°58'0 0.0
2016-Jun-22 07:33N 38°28' E 014°58'0 0.0
2016-Jun-22 06:34N 38°28' E 014°58'10 4.9
2016-Jun-22 04:28N 38°26' E 015°11'4 4.1
2016-Jun-22 03:33N 38°25' E 015°15'3 2.7
2016-Jun-22 02:33N 38°24' E 015°18'7 7.0
2016-Jun-22 01:34N 38°23' E 015°27'7 7.3
2016-Jun-22 00:34N 38°20' E 015°36'6 5.8
2016-Jun-21 23:33N 38°15' E 015°39'9 8.6
2016-Jun-21 22:33N 38°06' E 015°36'9 9.1
2016-Jun-21 21:33N 37°58' E 015°30'1110.6
2016-Jun-21 20:33N 37°51' E 015°20'3 0.5
2016-Jun-21 13:16N 37°50' E 015°17'0 0.0
2016-Jun-21 06:09N 37°50' E 015°17'6 3.9
2016-Jun-21 04:32N 37°44' E 015°18'92 9.0
2016-Jun-20 18:16N 36°16' E 014°42'811.0
2016-Jun-20 17:33N 36°09' E 014°38'1110.5
2016-Jun-20 16:33N 35°59' E 014°34'4 0.4
2016-Jun-20 05:33N 35°55' E 014°32'7 6.9
2016-Jun-20 04:33N 36°00' E 014°37'112 3.9
2016-Jun-19 00:08N 37°44' E 015°29'5 9.2
2016-Jun-18 23:33N 37°49' E 015°30'9 9.2
2016-Jun-18 22:33N 37°58' E 015°32'10 9.6
2016-Jun-18 21:34N 38°07' E 015°34'4 4.2
2016-Jun-18 20:33N 38°12' E 015°33'0 0.0
2016-Jun-18 19:33N 38°12' E 015°33'0 0.0
2016-Jun-18 18:33N 38°12' E 015°33'0 0.0
2016-Jun-18 17:33N 38°12' E 015°33'0 0.0
2016-Jun-18 16:33N 38°12' E 015°33'0 0.0
2016-Jun-18 15:33N 38°12' E 015°33'0 0.0
2016-Jun-18 14:33N 38°12' E 015°33'0 0.0
2016-Jun-18 13:33N 38°12' E 015°33'0 0.0
2016-Jun-18 12:33N 38°12' E 015°33'0 0.0
2016-Jun-18 11:33N 38°12' E 015°33'0 0.0
2016-Jun-18 10:33N 38°12' E 015°33'0 0.0
2016-Jun-18 09:33N 38°12' E 015°33'0 0.0
2016-Jun-18 08:33N 38°12' E 015°33'0 0.0
2016-Jun-18 07:33N 38°12' E 015°33'0 0.0
2016-Jun-18 06:33N 38°12' E 015°33'0 0.1
2016-Jun-18 05:33N 38°12' E 015°34'7 7.1
2016-Jun-18 04:33N 38°16' E 015°40'  
Track history (hours):
 
Tides and Currents Weather Stations Pressure Air Temp Water Temp Dewpoint Dewpoint Depression Visibility Wind Speed Wind Dir Waves Ship Positions

Le Ponant

Operator: Compangy des Iles du Ponant

Last reported at 2016-Jun-28 04:15 UTC. Time now 2016-Jun-28 05:56 UTC.
Position N 43°04' E 009°19'.

Length 84 m; draft 4.2 m.

Type: Passenger vessel. MMSI: 227186000.

Date/timePositionNaut miles runAvg speedWind from/ knotsBaromVisibWave heightAir tempDewpointWater temp
2016-Jun-28 04:15N 43°04' E 009°19'2010.3
2016-Jun-28 02:18N 43°12' E 008°54'810.7
2016-Jun-28 01:33N 43°15' E 008°44'1110.7
2016-Jun-28 00:33N 43°19' E 008°30'1110.5
2016-Jun-27 23:32N 43°23' E 008°16'1010.7
2016-Jun-27 22:33N 43°27' E 008°03'1111.0
2016-Jun-27 21:33N 43°31' E 007°49'1110.4
2016-Jun-27 20:29N 43°35' E 007°35'1010.0
2016-Jun-27 19:32N 43°38' E 007°23'5 0.5
2016-Jun-27 10:12N 43°42' E 007°17'1 0.1
2016-Jun-27 05:31N 43°41' E 007°17'26 8.7
2016-Jun-27 02:30N 43°34' E 007°52'1111.4
2016-Jun-27 01:30N 43°31' E 008°07'2110.4
2016-Jun-26 23:31N 43°28' E 008°36'1010.6
2016-Jun-26 22:33N 43°26' E 008°49'1211.4
2016-Jun-26 21:31N 43°24' E 009°05'1111.3
2016-Jun-26 20:33N 43°21' E 009°20'1111.3
2016-Jun-26 19:33N 43°19' E 009°35'1111.4
2016-Jun-26 18:34N 43°13' E 009°49'1010.2
2016-Jun-26 17:33N 43°06' E 009°59'1010.4
2016-Jun-26 16:33N 42°58' E 010°08'1010.3
2016-Jun-26 15:33N 42°51' E 010°18'3 2.5
2016-Jun-26 14:32N 42°49' E 010°20'5 0.5
2016-Jun-26 04:31N 42°51' E 010°14'21 7.0
2016-Jun-26 01:33N 42°35' E 009°56'164 4.4
2016-Jun-24 12:18N 40°57' E 012°52'6 7.2
2016-Jun-24 11:28N 40°53' E 012°58'161 4.0
2016-Jun-22 19:21N 38°48' E 015°11'2 0.6
2016-Jun-22 15:29N 38°46' E 015°13'0 0.3
2016-Jun-22 14:16N 38°46' E 015°12'4 5.6
2016-Jun-22 13:34N 38°42' E 015°10'1110.5
2016-Jun-22 12:33N 38°33' E 015°03'7 2.9
2016-Jun-22 10:08N 38°28' E 014°58'0 0.0
2016-Jun-22 09:33N 38°28' E 014°58'0 0.0
2016-Jun-22 08:32N 38°28' E 014°58'0 0.0
2016-Jun-22 07:33N 38°28' E 014°58'0 0.0
2016-Jun-22 06:34N 38°28' E 014°58'10 4.9
2016-Jun-22 04:28N 38°26' E 015°11'4 4.1
2016-Jun-22 03:33N 38°25' E 015°15'3 2.7
2016-Jun-22 02:33N 38°24' E 015°18'7 7.0
2016-Jun-22 01:34N 38°23' E 015°27'7 7.3
2016-Jun-22 00:34N 38°20' E 015°36'6 5.8
2016-Jun-21 23:33N 38°15' E 015°39'9 8.6
2016-Jun-21 22:33N 38°06' E 015°36'9 9.1
2016-Jun-21 21:33N 37°58' E 015°30'1110.6
2016-Jun-21 20:33N 37°51' E 015°20'3 0.5
2016-Jun-21 13:16N 37°50' E 015°17'0 0.0
2016-Jun-21 06:09N 37°50' E 015°17'6 3.9
2016-Jun-21 04:32N 37°44' E 015°18'92 9.0
2016-Jun-20 18:16N 36°16' E 014°42'811.0
2016-Jun-20 17:33N 36°09' E 014°38'1110.5
2016-Jun-20 16:33N 35°59' E 014°34'4 0.4
2016-Jun-20 05:33N 35°55' E 014°32'7 6.9
2016-Jun-20 04:33N 36°00' E 014°37'112 3.9
2016-Jun-19 00:08N 37°44' E 015°29'5 9.2
2016-Jun-18 23:33N 37°49' E 015°30'9 9.2
2016-Jun-18 22:33N 37°58' E 015°32'10 9.6
2016-Jun-18 21:34N 38°07' E 015°34'4 4.2
2016-Jun-18 20:33N 38°12' E 015°33'0 0.0
2016-Jun-18 19:33N 38°12' E 015°33'0 0.0
2016-Jun-18 18:33N 38°12' E 015°33'0 0.0
2016-Jun-18 17:33N 38°12' E 015°33'0 0.0
2016-Jun-18 16:33N 38°12' E 015°33'0 0.0
2016-Jun-18 15:33N 38°12' E 015°33'0 0.0
2016-Jun-18 14:33N 38°12' E 015°33'0 0.0
2016-Jun-18 13:33N 38°12' E 015°33'0 0.0
2016-Jun-18 12:33N 38°12' E 015°33'0 0.0
2016-Jun-18 11:33N 38°12' E 015°33'0 0.0
2016-Jun-18 10:33N 38°12' E 015°33'0 0.0
2016-Jun-18 09:33N 38°12' E 015°33'0 0.0
2016-Jun-18 08:33N 38°12' E 015°33'0 0.0
2016-Jun-18 07:33N 38°12' E 015°33'0 0.0
2016-Jun-18 06:33N 38°12' E 015°33'0 0.1
2016-Jun-18 05:33N 38°12' E 015°34'7 7.1
2016-Jun-18 04:33N 38°16' E 015°40'  

Dump ship's entire track history